ESKM

Mora Airport

Sweden
METAR ESKM 211950Z AUTO 32002KT 9999 OVC013/// M07/M08 Q1013
Observed Flight Rules
Jan-21 @ 19:50 UTC (31 minutes ago) Marginal Visual Flight Rules
Wind Visibility Clouds
320° at 2 knots 10,000+ meters
  • Overcast at 1,300' AGL
Temperatures Readings
Current -7°C / 19°F
Dewpoint -8°C / 18°F
Humidity 93%
Altimeter 29.91" Hg
Pressure 1013 hPa
Elevation 193
METAR ESKM 211950Z AUTO 32002KT 9999 OVC013/// M07/M08 Q1013
Observed Flight Rules
Jan-21 @ 19:50 UTC
(31 minutes ago)
MVFR
Wind Visibility
320° at 2 knots 10,000+ meters
Clouds
  • Overcast at 1,300' AGL
Temperature Dewpoint
-7°C / 19°F -8°C / 18°F
Humidity Altimeter Pressure
93% 29.91" Hg 1013 hPa